sensor_id;sensor_type;location;lat;lon;timestamp;temperature;humidity
31695;DHT22;18289;51.330;4.946;2022-07-18T00:02:23;18.40;99.90
31695;DHT22;18289;51.330;4.946;2022-07-18T00:04:49;18.40;99.90
31695;DHT22;18289;51.330;4.946;2022-07-18T00:07:15;18.40;99.90
31695;DHT22;18289;51.330;4.946;2022-07-18T00:09:42;18.40;99.90
31695;DHT22;18289;51.330;4.946;2022-07-18T00:12:09;18.40;99.90
31695;DHT22;18289;51.330;4.946;2022-07-18T00:14:36;18.40;99.90
31695;DHT22;18289;51.330;4.946;2022-07-18T00:17:03;18.50;99.90
31695;DHT22;18289;51.330;4.946;2022-07-18T00:19:29;18.40;99.90
31695;DHT22;18289;51.330;4.946;2022-07-18T00:21:55;18.20;99.90
31695;DHT22;18289;51.330;4.946;2022-07-18T00:24:21;18.30;99.90
31695;DHT22;18289;51.330;4.946;2022-07-18T00:26:47;18.40;99.90
31695;DHT22;18289;51.330;4.946;2022-07-18T00:29:13;18.30;99.90
31695;DHT22;18289;51.330;4.946;2022-07-18T00:31:39;18.30;99.90
31695;DHT22;18289;51.330;4.946;2022-07-18T00:34:05;18.20;99.90
31695;DHT22;18289;51.330;4.946;2022-07-18T00:36:31;18.30;99.90
31695;DHT22;18289;51.330;4.946;2022-07-18T00:38:58;18.30;99.90
31695;DHT22;18289;51.330;4.946;2022-07-18T00:41:25;18.30;99.90
31695;DHT22;18289;51.330;4.946;2022-07-18T00:43:51;18.20;99.90
31695;DHT22;18289;51.330;4.946;2022-07-18T00:46:23;18.30;99.90
31695;DHT22;18289;51.330;4.946;2022-07-18T00:48:49;18.30;99.90
31695;DHT22;18289;51.330;4.946;2022-07-18T00:51:15;18.30;99.90
31695;DHT22;18289;51.330;4.946;2022-07-18T00:53:43;18.40;99.90
31695;DHT22;18289;51.330;4.946;2022-07-18T00:56:09;18.30;99.90
31695;DHT22;18289;51.330;4.946;2022-07-18T00:58:35;18.30;99.90
31695;DHT22;18289;51.330;4.946;2022-07-18T01:01:02;18.10;99.90
31695;DHT22;18289;51.330;4.946;2022-07-18T01:03:47;18.20;99.90
31695;DHT22;18289;51.330;4.946;2022-07-18T01:06:13;18.20;99.90
31695;DHT22;18289;51.330;4.946;2022-07-18T01:08:42;18.10;99.90
31695;DHT22;18289;51.330;4.946;2022-07-18T01:11:09;18.00;99.90
31695;DHT22;18289;51.330;4.946;2022-07-18T01:13:36;17.90;99.90
31695;DHT22;18289;51.330;4.946;2022-07-18T01:16:02;18.00;99.90
31695;DHT22;18289;51.330;4.946;2022-07-18T01:18:28;17.90;99.90
31695;DHT22;18289;51.330;4.946;2022-07-18T01:20:54;18.00;99.90
31695;DHT22;18289;51.330;4.946;2022-07-18T01:23:20;17.90;99.90
31695;DHT22;18289;51.330;4.946;2022-07-18T01:25:46;17.90;99.90
31695;DHT22;18289;51.330;4.946;2022-07-18T01:28:12;17.80;99.90
31695;DHT22;18289;51.330;4.946;2022-07-18T01:30:38;17.80;99.90
31695;DHT22;18289;51.330;4.946;2022-07-18T01:33:04;17.90;99.90
31695;DHT22;18289;51.330;4.946;2022-07-18T01:35:30;17.80;99.90
31695;DHT22;18289;51.330;4.946;2022-07-18T01:37:59;17.80;99.90
31695;DHT22;18289;51.330;4.946;2022-07-18T01:40:26;17.80;99.90
31695;DHT22;18289;51.330;4.946;2022-07-18T01:42:53;17.70;99.90
31695;DHT22;18289;51.330;4.946;2022-07-18T01:45:19;17.80;99.90
31695;DHT22;18289;51.330;4.946;2022-07-18T01:47:46;17.70;99.90
31695;DHT22;18289;51.330;4.946;2022-07-18T01:50:13;17.70;99.90
31695;DHT22;18289;51.330;4.946;2022-07-18T01:52:39;17.70;99.90
31695;DHT22;18289;51.330;4.946;2022-07-18T01:55:08;17.60;99.90
31695;DHT22;18289;51.330;4.946;2022-07-18T01:57:34;17.60;99.90
31695;DHT22;18289;51.330;4.946;2022-07-18T02:00:00;17.50;99.90
31695;DHT22;18289;51.330;4.946;2022-07-18T02:02:26;17.50;99.90
31695;DHT22;18289;51.330;4.946;2022-07-18T02:04:52;17.50;99.90
31695;DHT22;18289;51.330;4.946;2022-07-18T02:07:30;17.60;99.90
31695;DHT22;18289;51.330;4.946;2022-07-18T02:09:57;17.60;99.90
31695;DHT22;18289;51.330;4.946;2022-07-18T02:12:24;17.50;99.90
31695;DHT22;18289;51.330;4.946;2022-07-18T02:14:50;17.50;99.90
31695;DHT22;18289;51.330;4.946;2022-07-18T02:17:17;17.50;99.90
31695;DHT22;18289;51.330;4.946;2022-07-18T02:19:45;17.30;99.90
31695;DHT22;18289;51.330;4.946;2022-07-18T02:22:11;17.50;99.90
31695;DHT22;18289;51.330;4.946;2022-07-18T02:24:37;17.40;99.90
31695;DHT22;18289;51.330;4.946;2022-07-18T02:27:03;17.40;99.90
31695;DHT22;18289;51.330;4.946;2022-07-18T02:29:29;17.40;99.90
31695;DHT22;18289;51.330;4.946;2022-07-18T02:31:56;17.30;99.90
31695;DHT22;18289;51.330;4.946;2022-07-18T02:34:21;17.30;99.90
31695;DHT22;18289;51.330;4.946;2022-07-18T02:36:47;17.20;99.90
31695;DHT22;18289;51.330;4.946;2022-07-18T02:39:16;17.30;99.90
31695;DHT22;18289;51.330;4.946;2022-07-18T02:41:42;17.30;99.90
31695;DHT22;18289;51.330;4.946;2022-07-18T02:44:08;17.20;99.90
31695;DHT22;18289;51.330;4.946;2022-07-18T02:46:34;17.20;99.90
31695;DHT22;18289;51.330;4.946;2022-07-18T02:49:00;17.20;99.90
31695;DHT22;18289;51.330;4.946;2022-07-18T02:51:26;17.20;99.90
31695;DHT22;18289;51.330;4.946;2022-07-18T02:53:53;17.20;99.90
31695;DHT22;18289;51.330;4.946;2022-07-18T02:56:19;17.20;99.90
31695;DHT22;18289;51.330;4.946;2022-07-18T02:58:45;17.10;99.90
31695;DHT22;18289;51.330;4.946;2022-07-18T03:01:11;17.20;99.90
31695;DHT22;18289;51.330;4.946;2022-07-18T03:03:37;17.20;99.90
31695;DHT22;18289;51.330;4.946;2022-07-18T03:06:03;17.10;99.90
31695;DHT22;18289;51.330;4.946;2022-07-18T03:08:29;17.10;99.90
31695;DHT22;18289;51.330;4.946;2022-07-18T03:10:55;17.10;99.90
31695;DHT22;18289;51.330;4.946;2022-07-18T03:13:21;16.90;99.90
31695;DHT22;18289;51.330;4.946;2022-07-18T03:15:47;16.90;99.90
31695;DHT22;18289;51.330;4.946;2022-07-18T03:18:13;16.90;99.90
31695;DHT22;18289;51.330;4.946;2022-07-18T03:20:39;17.00;99.90
31695;DHT22;18289;51.330;4.946;2022-07-18T03:23:06;16.90;99.90
31695;DHT22;18289;51.330;4.946;2022-07-18T03:25:32;16.90;99.90
31695;DHT22;18289;51.330;4.946;2022-07-18T03:27:58;16.90;99.90
31695;DHT22;18289;51.330;4.946;2022-07-18T03:30:24;16.90;99.90
31695;DHT22;18289;51.330;4.946;2022-07-18T03:32:50;16.90;99.90
31695;DHT22;18289;51.330;4.946;2022-07-18T03:35:16;16.90;99.90
31695;DHT22;18289;51.330;4.946;2022-07-18T03:37:42;16.80;99.90
31695;DHT22;18289;51.330;4.946;2022-07-18T03:40:09;16.80;99.90
31695;DHT22;18289;51.330;4.946;2022-07-18T03:42:39;16.80;99.90
31695;DHT22;18289;51.330;4.946;2022-07-18T03:45:06;16.90;99.90
31695;DHT22;18289;51.330;4.946;2022-07-18T03:47:33;16.90;99.90
31695;DHT22;18289;51.330;4.946;2022-07-18T03:49:59;16.90;99.90
31695;DHT22;18289;51.330;4.946;2022-07-18T03:52:25;16.80;99.90
31695;DHT22;18289;51.330;4.946;2022-07-18T03:54:52;16.70;99.90
31695;DHT22;18289;51.330;4.946;2022-07-18T03:57:18;16.70;99.90
31695;DHT22;18289;51.330;4.946;2022-07-18T03:59:44;16.70;99.90
31695;DHT22;18289;51.330;4.946;2022-07-18T04:02:10;16.90;99.90
31695;DHT22;18289;51.330;4.946;2022-07-18T04:04:36;16.80;99.90
31695;DHT22;18289;51.330;4.946;2022-07-18T04:07:02;16.80;99.90
31695;DHT22;18289;51.330;4.946;2022-07-18T04:09:29;16.80;99.90
31695;DHT22;18289;51.330;4.946;2022-07-18T04:11:55;16.70;99.90
31695;DHT22;18289;51.330;4.946;2022-07-18T04:14:21;16.80;99.90
31695;DHT22;18289;51.330;4.946;2022-07-18T04:16:50;16.80;99.90
31695;DHT22;18289;51.330;4.946;2022-07-18T04:19:16;16.80;99.90
31695;DHT22;18289;51.330;4.946;2022-07-18T04:21:44;16.70;99.90
31695;DHT22;18289;51.330;4.946;2022-07-18T04:24:11;16.80;99.90
31695;DHT22;18289;51.330;4.946;2022-07-18T04:26:37;16.80;99.90
31695;DHT22;18289;51.330;4.946;2022-07-18T04:29:03;16.90;99.90
31695;DHT22;18289;51.330;4.946;2022-07-18T04:31:29;16.90;99.90
31695;DHT22;18289;51.330;4.946;2022-07-18T04:33:55;16.80;99.90
31695;DHT22;18289;51.330;4.946;2022-07-18T04:36:21;16.80;99.90
31695;DHT22;18289;51.330;4.946;2022-07-18T04:38:48;16.80;99.90
31695;DHT22;18289;51.330;4.946;2022-07-18T04:41:13;16.90;99.90
31695;DHT22;18289;51.330;4.946;2022-07-18T04:43:40;16.80;99.90
31695;DHT22;18289;51.330;4.946;2022-07-18T04:46:06;16.80;99.90
31695;DHT22;18289;51.330;4.946;2022-07-18T04:48:32;16.90;99.90
31695;DHT22;18289;51.330;4.946;2022-07-18T04:50:58;16.90;99.90
31695;DHT22;18289;51.330;4.946;2022-07-18T04:53:24;16.80;99.90
31695;DHT22;18289;51.330;4.946;2022-07-18T04:55:50;16.90;99.90
31695;DHT22;18289;51.330;4.946;2022-07-18T04:58:15;16.90;99.90
31695;DHT22;18289;51.330;4.946;2022-07-18T05:00:41;17.00;99.90
31695;DHT22;18289;51.330;4.946;2022-07-18T05:03:07;17.00;99.90
31695;DHT22;18289;51.330;4.946;2022-07-18T05:05:33;17.00;99.90
31695;DHT22;18289;51.330;4.946;2022-07-18T05:07:59;17.00;99.90
31695;DHT22;18289;51.330;4.946;2022-07-18T05:10:25;17.20;99.90
31695;DHT22;18289;51.330;4.946;2022-07-18T05:12:53;17.20;99.90
31695;DHT22;18289;51.330;4.946;2022-07-18T05:15:21;17.30;99.90
31695;DHT22;18289;51.330;4.946;2022-07-18T05:17:47;17.40;99.90
31695;DHT22;18289;51.330;4.946;2022-07-18T05:20:16;17.50;99.90
31695;DHT22;18289;51.330;4.946;2022-07-18T05:22:43;17.60;99.90
31695;DHT22;18289;51.330;4.946;2022-07-18T05:25:10;17.60;99.90
31695;DHT22;18289;51.330;4.946;2022-07-18T05:27:36;17.80;99.90
31695;DHT22;18289;51.330;4.946;2022-07-18T05:30:04;17.90;99.90
31695;DHT22;18289;51.330;4.946;2022-07-18T05:32:30;18.00;99.90
31695;DHT22;18289;51.330;4.946;2022-07-18T05:34:57;18.10;99.90
31695;DHT22;18289;51.330;4.946;2022-07-18T05:37:23;18.30;99.90
31695;DHT22;18289;51.330;4.946;2022-07-18T05:39:49;18.30;99.90
31695;DHT22;18289;51.330;4.946;2022-07-18T05:42:17;18.30;99.90
31695;DHT22;18289;51.330;4.946;2022-07-18T05:44:43;18.50;99.90
31695;DHT22;18289;51.330;4.946;2022-07-18T05:47:09;18.50;99.90
31695;DHT22;18289;51.330;4.946;2022-07-18T05:49:36;18.60;99.90
31695;DHT22;18289;51.330;4.946;2022-07-18T05:52:02;18.70;99.90
31695;DHT22;18289;51.330;4.946;2022-07-18T05:54:28;18.70;99.90
31695;DHT22;18289;51.330;4.946;2022-07-18T05:56:54;18.80;99.90
31695;DHT22;18289;51.330;4.946;2022-07-18T05:59:20;18.70;99.90
31695;DHT22;18289;51.330;4.946;2022-07-18T06:01:47;18.90;99.90
31695;DHT22;18289;51.330;4.946;2022-07-18T06:04:13;18.80;99.90
31695;DHT22;18289;51.330;4.946;2022-07-18T06:06:40;18.90;99.90
31695;DHT22;18289;51.330;4.946;2022-07-18T06:09:06;19.00;99.90
31695;DHT22;18289;51.330;4.946;2022-07-18T06:11:34;19.10;99.90
31695;DHT22;18289;51.330;4.946;2022-07-18T06:14:00;19.20;99.90
31695;DHT22;18289;51.330;4.946;2022-07-18T06:16:29;19.30;99.90
31695;DHT22;18289;51.330;4.946;2022-07-18T06:18:56;19.20;99.90
31695;DHT22;18289;51.330;4.946;2022-07-18T06:21:22;19.50;99.90
31695;DHT22;18289;51.330;4.946;2022-07-18T06:23:48;19.50;99.90
31695;DHT22;18289;51.330;4.946;2022-07-18T06:26:14;19.60;99.90
31695;DHT22;18289;51.330;4.946;2022-07-18T06:28:39;19.70;99.90
31695;DHT22;18289;51.330;4.946;2022-07-18T06:31:05;19.80;99.90
31695;DHT22;18289;51.330;4.946;2022-07-18T06:33:31;19.90;99.90
31695;DHT22;18289;51.330;4.946;2022-07-18T06:35:57;20.00;99.90
31695;DHT22;18289;51.330;4.946;2022-07-18T06:38:23;20.10;99.90
31695;DHT22;18289;51.330;4.946;2022-07-18T06:40:49;20.20;99.90
31695;DHT22;18289;51.330;4.946;2022-07-18T06:43:15;20.30;99.90
31695;DHT22;18289;51.330;4.946;2022-07-18T06:45:48;20.40;99.90
31695;DHT22;18289;51.330;4.946;2022-07-18T06:48:15;20.50;99.90
31695;DHT22;18289;51.330;4.946;2022-07-18T06:50:41;20.60;99.90
31695;DHT22;18289;51.330;4.946;2022-07-18T06:53:07;20.90;99.90
31695;DHT22;18289;51.330;4.946;2022-07-18T06:55:33;20.90;99.90
31695;DHT22;18289;51.330;4.946;2022-07-18T06:57:59;21.00;99.90
31695;DHT22;18289;51.330;4.946;2022-07-18T07:00:25;21.20;99.90
31695;DHT22;18289;51.330;4.946;2022-07-18T07:02:51;21.30;98.90
31695;DHT22;18289;51.330;4.946;2022-07-18T07:05:19;21.60;98.00
31695;DHT22;18289;51.330;4.946;2022-07-18T07:07:46;21.60;97.40
31695;DHT22;18289;51.330;4.946;2022-07-18T07:10:12;21.80;97.60
31695;DHT22;18289;51.330;4.946;2022-07-18T07:12:44;21.90;96.70
31695;DHT22;18289;51.330;4.946;2022-07-18T07:15:10;22.10;97.10
31695;DHT22;18289;51.330;4.946;2022-07-18T07:17:37;22.10;98.60
31695;DHT22;18289;51.330;4.946;2022-07-18T07:20:04;22.30;96.80
31695;DHT22;18289;51.330;4.946;2022-07-18T07:22:32;22.40;96.70
31695;DHT22;18289;51.330;4.946;2022-07-18T07:25:05;22.50;96.30
31695;DHT22;18289;51.330;4.946;2022-07-18T07:27:31;22.60;95.30
31695;DHT22;18289;51.330;4.946;2022-07-18T07:29:57;22.60;94.00
31695;DHT22;18289;51.330;4.946;2022-07-18T07:32:23;22.70;94.40
31695;DHT22;18289;51.330;4.946;2022-07-18T07:34:49;22.80;94.30
31695;DHT22;18289;51.330;4.946;2022-07-18T07:37:15;22.90;93.40
31695;DHT22;18289;51.330;4.946;2022-07-18T07:39:40;23.00;93.70
31695;DHT22;18289;51.330;4.946;2022-07-18T07:42:06;23.10;93.30
31695;DHT22;18289;51.330;4.946;2022-07-18T07:44:32;23.10;92.80
31695;DHT22;18289;51.330;4.946;2022-07-18T07:46:58;23.30;94.00
31695;DHT22;18289;51.330;4.946;2022-07-18T07:49:25;23.40;93.50
31695;DHT22;18289;51.330;4.946;2022-07-18T07:51:51;23.60;93.50
31695;DHT22;18289;51.330;4.946;2022-07-18T07:54:16;23.70;92.50
31695;DHT22;18289;51.330;4.946;2022-07-18T07:56:42;23.80;92.00
31695;DHT22;18289;51.330;4.946;2022-07-18T07:59:08;23.90;91.80
31695;DHT22;18289;51.330;4.946;2022-07-18T08:01:34;23.90;92.20
31695;DHT22;18289;51.330;4.946;2022-07-18T08:04:00;24.00;92.20
31695;DHT22;18289;51.330;4.946;2022-07-18T08:06:26;24.10;92.20
31695;DHT22;18289;51.330;4.946;2022-07-18T08:08:52;24.20;92.40
31695;DHT22;18289;51.330;4.946;2022-07-18T08:11:18;24.30;91.20
31695;DHT22;18289;51.330;4.946;2022-07-18T08:13:43;24.50;91.00
31695;DHT22;18289;51.330;4.946;2022-07-18T08:16:09;24.50;90.50
31695;DHT22;18289;51.330;4.946;2022-07-18T08:18:35;24.70;90.00
31695;DHT22;18289;51.330;4.946;2022-07-18T08:21:02;24.90;90.50
31695;DHT22;18289;51.330;4.946;2022-07-18T08:23:27;25.00;90.30
31695;DHT22;18289;51.330;4.946;2022-07-18T08:25:53;25.00;90.40
31695;DHT22;18289;51.330;4.946;2022-07-18T08:28:19;25.10;90.90
31695;DHT22;18289;51.330;4.946;2022-07-18T08:30:45;25.30;90.60
31695;DHT22;18289;51.330;4.946;2022-07-18T08:33:11;25.50;89.30
31695;DHT22;18289;51.330;4.946;2022-07-18T08:35:37;25.60;90.00
31695;DHT22;18289;51.330;4.946;2022-07-18T08:38:03;25.70;90.40
31695;DHT22;18289;51.330;4.946;2022-07-18T08:40:30;25.80;90.30
31695;DHT22;18289;51.330;4.946;2022-07-18T08:42:57;25.80;88.60
31695;DHT22;18289;51.330;4.946;2022-07-18T08:45:24;26.00;89.20
31695;DHT22;18289;51.330;4.946;2022-07-18T08:47:51;26.10;89.60
31695;DHT22;18289;51.330;4.946;2022-07-18T08:50:17;26.20;89.30
31695;DHT22;18289;51.330;4.946;2022-07-18T08:52:44;26.40;87.70
31695;DHT22;18289;51.330;4.946;2022-07-18T08:55:10;26.50;87.50
31695;DHT22;18289;51.330;4.946;2022-07-18T08:57:37;26.80;88.60
31695;DHT22;18289;51.330;4.946;2022-07-18T09:00:05;26.80;86.20
31695;DHT22;18289;51.330;4.946;2022-07-18T09:02:31;27.00;87.00
31695;DHT22;18289;51.330;4.946;2022-07-18T09:05:01;27.10;86.10
31695;DHT22;18289;51.330;4.946;2022-07-18T09:07:28;27.20;88.90
31695;DHT22;18289;51.330;4.946;2022-07-18T09:09:57;27.30;84.30
31695;DHT22;18289;51.330;4.946;2022-07-18T09:12:25;27.30;86.30
31695;DHT22;18289;51.330;4.946;2022-07-18T09:14:51;27.50;84.60
31695;DHT22;18289;51.330;4.946;2022-07-18T09:17:27;27.60;84.90
31695;DHT22;18289;51.330;4.946;2022-07-18T09:20:12;27.70;85.60
31695;DHT22;18289;51.330;4.946;2022-07-18T09:22:41;27.80;83.70
31695;DHT22;18289;51.330;4.946;2022-07-18T09:25:09;27.90;80.50
31695;DHT22;18289;51.330;4.946;2022-07-18T09:27:41;28.00;82.10
31695;DHT22;18289;51.330;4.946;2022-07-18T09:30:17;28.10;83.20
31695;DHT22;18289;51.330;4.946;2022-07-18T09:32:49;28.30;83.00
31695;DHT22;18289;51.330;4.946;2022-07-18T09:35:20;28.50;82.80
31695;DHT22;18289;51.330;4.946;2022-07-18T09:38:14;28.60;80.60
31695;DHT22;18289;51.330;4.946;2022-07-18T09:40:44;28.70;78.70
31695;DHT22;18289;51.330;4.946;2022-07-18T09:43:14;28.90;77.20
31695;DHT22;18289;51.330;4.946;2022-07-18T09:45:41;29.00;79.50
31695;DHT22;18289;51.330;4.946;2022-07-18T09:48:10;29.20;82.00
31695;DHT22;18289;51.330;4.946;2022-07-18T09:50:39;29.40;74.80
31695;DHT22;18289;51.330;4.946;2022-07-18T09:55:34;29.90;71.40
31695;DHT22;18289;51.330;4.946;2022-07-18T09:58:05;30.20;74.70
31695;DHT22;18289;51.330;4.946;2022-07-18T10:00:33;30.50;73.40
31695;DHT22;18289;51.330;4.946;2022-07-18T10:03:00;31.30;75.80
31695;DHT22;18289;51.330;4.946;2022-07-18T10:05:27;32.50;73.30
31695;DHT22;18289;51.330;4.946;2022-07-18T10:07:54;33.80;64.00
31695;DHT22;18289;51.330;4.946;2022-07-18T10:10:22;34.80;62.00
31695;DHT22;18289;51.330;4.946;2022-07-18T10:13:01;35.60;59.70
31695;DHT22;18289;51.330;4.946;2022-07-18T10:15:29;36.10;55.80
31695;DHT22;18289;51.330;4.946;2022-07-18T10:17:56;36.80;56.30
31695;DHT22;18289;51.330;4.946;2022-07-18T10:25:39;38.90;56.20
31695;DHT22;18289;51.330;4.946;2022-07-18T10:28:07;39.50;50.10
31695;DHT22;18289;51.330;4.946;2022-07-18T10:30:44;40.20;49.70
31695;DHT22;18289;51.330;4.946;2022-07-18T10:33:39;40.60;49.90
31695;DHT22;18289;51.330;4.946;2022-07-18T10:36:10;40.60;46.50
31695;DHT22;18289;51.330;4.946;2022-07-18T10:38:37;40.80;47.00
31695;DHT22;18289;51.330;4.946;2022-07-18T10:41:13;41.30;47.50
31695;DHT22;18289;51.330;4.946;2022-07-18T10:43:41;41.60;43.20
31695;DHT22;18289;51.330;4.946;2022-07-18T10:46:08;41.80;44.10
31695;DHT22;18289;51.330;4.946;2022-07-18T10:51:03;42.10;44.50
31695;DHT22;18289;51.330;4.946;2022-07-18T10:57:04;42.50;41.80
31695;DHT22;18289;51.330;4.946;2022-07-18T10:59:18;42.50;41.00
31695;DHT22;18289;51.330;4.946;2022-07-18T11:01:50;43.00;43.30
31695;DHT22;18289;51.330;4.946;2022-07-18T11:04:33;43.70;41.20
31695;DHT22;18289;51.330;4.946;2022-07-18T11:07:12;43.60;41.90
31695;DHT22;18289;51.330;4.946;2022-07-18T11:09:46;43.70;41.80
31695;DHT22;18289;51.330;4.946;2022-07-18T11:12:29;44.20;39.80
31695;DHT22;18289;51.330;4.946;2022-07-18T11:22:59;42.90;40.00
31695;DHT22;18289;51.330;4.946;2022-07-18T11:25:29;41.90;39.90
31695;DHT22;18289;51.330;4.946;2022-07-18T11:27:56;40.80;41.70
31695;DHT22;18289;51.330;4.946;2022-07-18T11:30:23;39.60;43.80
31695;DHT22;18289;51.330;4.946;2022-07-18T11:32:50;38.70;43.00
31695;DHT22;18289;51.330;4.946;2022-07-18T11:35:22;37.90;47.00
31695;DHT22;18289;51.330;4.946;2022-07-18T11:37:49;37.20;45.60
31695;DHT22;18289;51.330;4.946;2022-07-18T11:40:16;36.50;46.90
31695;DHT22;18289;51.330;4.946;2022-07-18T11:42:42;35.90;46.80
31695;DHT22;18289;51.330;4.946;2022-07-18T11:45:12;35.60;49.10
31695;DHT22;18289;51.330;4.946;2022-07-18T11:47:52;35.30;47.80
31695;DHT22;18289;51.330;4.946;2022-07-18T11:50:26;34.80;50.30
31695;DHT22;18289;51.330;4.946;2022-07-18T11:52:59;34.40;48.50
31695;DHT22;18289;51.330;4.946;2022-07-18T11:55:32;34.00;50.50
31695;DHT22;18289;51.330;4.946;2022-07-18T11:58:09;33.60;51.00
31695;DHT22;18289;51.330;4.946;2022-07-18T12:00:35;33.60;50.90
31695;DHT22;18289;51.330;4.946;2022-07-18T12:03:10;33.50;51.80
31695;DHT22;18289;51.330;4.946;2022-07-18T12:05:43;33.40;52.00
31695;DHT22;18289;51.330;4.946;2022-07-18T12:08:28;33.20;47.10
31695;DHT22;18289;51.330;4.946;2022-07-18T12:11:16;33.20;49.60
31695;DHT22;18289;51.330;4.946;2022-07-18T12:13:54;33.10;49.50
31695;DHT22;18289;51.330;4.946;2022-07-18T12:16:38;33.30;50.00
31695;DHT22;18289;51.330;4.946;2022-07-18T12:19:15;33.40;49.30
31695;DHT22;18289;51.330;4.946;2022-07-18T12:27:25;34.40;50.00
31695;DHT22;18289;51.330;4.946;2022-07-18T12:32:29;35.40;46.20
31695;DHT22;18289;51.330;4.946;2022-07-18T12:35:05;35.40;47.50
31695;DHT22;18289;51.330;4.946;2022-07-18T12:37:31;36.00;46.80
31695;DHT22;18289;51.330;4.946;2022-07-18T12:39:59;36.60;45.10
31695;DHT22;18289;51.330;4.946;2022-07-18T12:42:32;37.30;43.30
31695;DHT22;18289;51.330;4.946;2022-07-18T12:44:58;38.10;43.40
31695;DHT22;18289;51.330;4.946;2022-07-18T12:47:24;38.90;41.00
31695;DHT22;18289;51.330;4.946;2022-07-18T12:49:50;40.00;41.00
31695;DHT22;18289;51.330;4.946;2022-07-18T12:52:17;40.90;39.90
31695;DHT22;18289;51.330;4.946;2022-07-18T12:54:43;42.30;41.10
31695;DHT22;18289;51.330;4.946;2022-07-18T12:57:09;43.50;42.90
31695;DHT22;18289;51.330;4.946;2022-07-18T12:59:34;44.50;41.70
31695;DHT22;18289;51.330;4.946;2022-07-18T13:02:00;45.40;37.60
31695;DHT22;18289;51.330;4.946;2022-07-18T13:04:26;45.70;36.50
31695;DHT22;18289;51.330;4.946;2022-07-18T13:06:51;46.20;37.40
31695;DHT22;18289;51.330;4.946;2022-07-18T13:09:17;46.50;36.20
31695;DHT22;18289;51.330;4.946;2022-07-18T13:11:43;47.10;36.40
31695;DHT22;18289;51.330;4.946;2022-07-18T13:14:13;47.70;36.40
31695;DHT22;18289;51.330;4.946;2022-07-18T13:16:39;47.80;34.30
31695;DHT22;18289;51.330;4.946;2022-07-18T13:19:05;47.80;34.90
31695;DHT22;18289;51.330;4.946;2022-07-18T13:21:30;48.30;36.40
31695;DHT22;18289;51.330;4.946;2022-07-18T13:23:56;48.60;36.00
31695;DHT22;18289;51.330;4.946;2022-07-18T13:26:22;48.60;36.60
31695;DHT22;18289;51.330;4.946;2022-07-18T13:28:47;48.80;33.50
31695;DHT22;18289;51.330;4.946;2022-07-18T13:31:13;49.10;34.80
31695;DHT22;18289;51.330;4.946;2022-07-18T13:33:39;49.10;35.40
31695;DHT22;18289;51.330;4.946;2022-07-18T13:36:05;49.20;37.00
31695;DHT22;18289;51.330;4.946;2022-07-18T13:38:31;49.70;34.40
31695;DHT22;18289;51.330;4.946;2022-07-18T13:40:56;50.30;34.30
31695;DHT22;18289;51.330;4.946;2022-07-18T13:43:22;51.00;32.40
31695;DHT22;18289;51.330;4.946;2022-07-18T13:45:48;50.60;34.30
31695;DHT22;18289;51.330;4.946;2022-07-18T13:48:14;50.70;31.90
31695;DHT22;18289;51.330;4.946;2022-07-18T13:50:39;50.70;31.10
31695;DHT22;18289;51.330;4.946;2022-07-18T13:53:06;50.40;31.80
31695;DHT22;18289;51.330;4.946;2022-07-18T13:55:32;50.90;30.00
31695;DHT22;18289;51.330;4.946;2022-07-18T13:57:58;50.50;34.40
31695;DHT22;18289;51.330;4.946;2022-07-18T14:00:24;50.60;32.00
31695;DHT22;18289;51.330;4.946;2022-07-18T14:02:50;50.40;30.00
31695;DHT22;18289;51.330;4.946;2022-07-18T14:05:16;50.90;29.90
31695;DHT22;18289;51.330;4.946;2022-07-18T14:07:42;50.60;32.40
31695;DHT22;18289;51.330;4.946;2022-07-18T14:10:08;50.40;31.90
31695;DHT22;18289;51.330;4.946;2022-07-18T14:12:34;49.90;32.00
31695;DHT22;18289;51.330;4.946;2022-07-18T14:15:00;50.10;32.10
31695;DHT22;18289;51.330;4.946;2022-07-18T14:17:26;49.80;31.90
31695;DHT22;18289;51.330;4.946;2022-07-18T14:19:51;50.00;31.60
31695;DHT22;18289;51.330;4.946;2022-07-18T14:22:17;50.10;31.00
31695;DHT22;18289;51.330;4.946;2022-07-18T14:24:43;50.10;30.30
31695;DHT22;18289;51.330;4.946;2022-07-18T14:27:09;50.30;31.60
31695;DHT22;18289;51.330;4.946;2022-07-18T14:29:34;50.10;30.00
31695;DHT22;18289;51.330;4.946;2022-07-18T14:32:02;50.30;32.20
31695;DHT22;18289;51.330;4.946;2022-07-18T14:34:28;50.40;30.30
31695;DHT22;18289;51.330;4.946;2022-07-18T14:36:53;50.50;29.60
31695;DHT22;18289;51.330;4.946;2022-07-18T14:39:19;50.50;29.70
31695;DHT22;18289;51.330;4.946;2022-07-18T14:41:45;50.20;32.40
31695;DHT22;18289;51.330;4.946;2022-07-18T14:44:11;50.40;32.20
31695;DHT22;18289;51.330;4.946;2022-07-18T14:46:37;50.60;31.50
31695;DHT22;18289;51.330;4.946;2022-07-18T14:49:02;50.50;31.00
31695;DHT22;18289;51.330;4.946;2022-07-18T14:51:28;50.20;30.80
31695;DHT22;18289;51.330;4.946;2022-07-18T14:53:54;50.40;30.60
31695;DHT22;18289;51.330;4.946;2022-07-18T14:56:20;50.50;30.50
31695;DHT22;18289;51.330;4.946;2022-07-18T14:58:46;50.60;29.80
31695;DHT22;18289;51.330;4.946;2022-07-18T15:01:11;50.40;30.90
31695;DHT22;18289;51.330;4.946;2022-07-18T15:03:37;50.30;30.30
31695;DHT22;18289;51.330;4.946;2022-07-18T15:06:03;50.10;30.40
31695;DHT22;18289;51.330;4.946;2022-07-18T15:08:29;50.30;31.30
31695;DHT22;18289;51.330;4.946;2022-07-18T15:10:54;49.70;31.00
31695;DHT22;18289;51.330;4.946;2022-07-18T15:13:20;49.90;30.20
31695;DHT22;18289;51.330;4.946;2022-07-18T15:15:46;50.00;29.80
31695;DHT22;18289;51.330;4.946;2022-07-18T15:18:13;50.30;29.20
31695;DHT22;18289;51.330;4.946;2022-07-18T15:20:39;50.30;30.50
31695;DHT22;18289;51.330;4.946;2022-07-18T15:23:05;50.00;30.00
31695;DHT22;18289;51.330;4.946;2022-07-18T15:25:31;50.40;30.00
31695;DHT22;18289;51.330;4.946;2022-07-18T15:27:56;50.40;29.80
31695;DHT22;18289;51.330;4.946;2022-07-18T15:30:22;50.00;30.80
31695;DHT22;18289;51.330;4.946;2022-07-18T15:32:48;49.80;31.90
31695;DHT22;18289;51.330;4.946;2022-07-18T15:35:14;49.90;30.50
31695;DHT22;18289;51.330;4.946;2022-07-18T15:37:39;50.00;29.50
31695;DHT22;18289;51.330;4.946;2022-07-18T15:40:06;49.80;30.60
31695;DHT22;18289;51.330;4.946;2022-07-18T15:42:31;49.60;30.00
31695;DHT22;18289;51.330;4.946;2022-07-18T15:44:57;49.30;30.30
31695;DHT22;18289;51.330;4.946;2022-07-18T15:47:23;49.50;30.70
31695;DHT22;18289;51.330;4.946;2022-07-18T15:49:49;49.40;32.20
31695;DHT22;18289;51.330;4.946;2022-07-18T15:52:14;49.10;30.00
31695;DHT22;18289;51.330;4.946;2022-07-18T15:54:43;49.20;30.70
31695;DHT22;18289;51.330;4.946;2022-07-18T15:57:09;49.00;31.20
31695;DHT22;18289;51.330;4.946;2022-07-18T15:59:35;49.00;30.60
31695;DHT22;18289;51.330;4.946;2022-07-18T16:02:02;49.00;31.60